CheckWX is a tool to help pilots better visualize weather data.  It is not intended as a substitute for an official pre-flight weather briefing.

03:44:05 UTC

EGPE METAR
Inverness Airport
Inverness, United Kingdom
Current

24 mins ago

EGPE 180320Z 00000KT 4500 -RADZ FEW006 SCT019 BKN024 08/08 Q1027
Observed
Sep-18 @ 03:20 UTC
Visibility
4,500 meters
Flight Rules
IFR
Conditions
Light Rain, Light Drizzle
Cloud Levels
  • Few at 600' AGL
  • Scattered at 1,900' AGL
  • Broken at 2,400' AGL
Temperature
C / 46°F
Dewpoint
C / 46°F
Humidity
100%
Altimeter
30.32" Hg
Pressure
1026.92 hPa
Previous

54 mins ago

EGPE 180250Z 21002KT 9999 -DZ FEW015 BKN019 08/07 Q1027
Observed
Sep-18 @ 02:50 UTC
Wind
  • 210° at 2 KTS
Visibility
10,000+ meters
Flight Rules
MVFR
Conditions
Light Drizzle
Cloud Levels
  • Few at 1,500' AGL
  • Broken at 1,900' AGL
Temperature
C / 46°F
Dewpoint
C / 45°F
Humidity
93%
Altimeter
30.32" Hg
Pressure
1026.92 hPa
Previous

1 hour ago

EGPE 180220Z 21004KT 9999 -DZ FEW018 BKN022 09/07 Q1027
Observed
Sep-18 @ 02:20 UTC
Wind
  • 210° at 4 KTS
Visibility
10,000+ meters
Flight Rules
MVFR
Conditions
Light Drizzle
Cloud Levels
  • Few at 1,800' AGL
  • Broken at 2,200' AGL
Temperature
C / 48°F
Dewpoint
C / 45°F
Humidity
87%
Altimeter
30.32" Hg
Pressure
1026.92 hPa